createdAt,value
2023-04-26T00:02:13.978Z,141.43
2023-04-26T00:04:41.955Z,141.03
2023-04-26T00:07:09.965Z,141.53
2023-04-26T00:09:37.743Z,141.60
2023-04-26T00:12:07.558Z,141.80
2023-04-26T00:14:35.339Z,141.23
2023-04-26T00:17:04.332Z,141.70
2023-04-26T00:19:32.217Z,141.10
2023-04-26T00:22:00.008Z,141.23
2023-04-26T00:24:27.798Z,141.70
2023-04-26T00:26:55.806Z,141.73
2023-04-26T00:29:24.949Z,141.40
2023-04-26T00:31:52.947Z,141.47
2023-04-26T00:34:20.816Z,141.40
2023-04-26T00:36:48.685Z,140.93
2023-04-26T00:39:16.473Z,141.37
2023-04-26T00:41:44.310Z,141.20
2023-04-26T00:44:12.093Z,140.73
2023-04-26T00:46:41.479Z,140.53
2023-04-26T00:49:09.762Z,140.67
2023-04-26T00:51:38.030Z,140.47
2023-04-26T00:54:06.014Z,141.37
2023-04-26T00:56:34.483Z,140.43
2023-04-26T00:59:02.327Z,140.47
2023-04-26T01:01:30.382Z,141.33
2023-04-26T01:03:59.755Z,141.23
2023-04-26T01:06:34.035Z,140.37
2023-04-26T01:09:04.527Z,141.47
2023-04-26T01:11:33.014Z,140.53
2023-04-26T01:14:00.838Z,140.73
2023-04-26T01:16:29.353Z,141.13
2023-04-26T01:18:57.799Z,140.57
2023-04-26T01:21:26.983Z,140.53
2023-04-26T01:23:57.792Z,140.23
2023-04-26T01:26:25.601Z,139.83
2023-04-26T01:28:54.753Z,140.30
2023-04-26T01:31:22.778Z,140.60
2023-04-26T01:33:50.599Z,140.40
2023-04-26T01:36:20.495Z,140.47
2023-04-26T01:38:48.459Z,139.97
2023-04-26T01:41:17.756Z,140.83
2023-04-26T01:43:45.533Z,140.93
2023-04-26T01:46:13.351Z,140.47
2023-04-26T01:48:41.159Z,140.43
2023-04-26T01:51:08.963Z,139.83
2023-04-26T01:53:36.807Z,140.60
2023-04-26T01:56:06.440Z,140.43
2023-04-26T01:58:35.690Z,140.43
2023-04-26T02:01:07.138Z,140.40
2023-04-26T02:03:34.987Z,140.13
2023-04-26T02:06:03.078Z,140.53
2023-04-26T02:08:30.884Z,140.63
2023-04-26T02:10:59.123Z,139.90
2023-04-26T02:13:27.165Z,140.30
2023-04-26T02:15:57.099Z,140.10
2023-04-26T02:18:24.900Z,140.10
2023-04-26T02:20:52.742Z,140.03
2023-04-26T02:23:20.569Z,139.87
2023-04-26T02:25:49.519Z,139.80
2023-04-26T02:28:18.462Z,139.50
2023-04-26T02:30:46.258Z,139.73
2023-04-26T02:33:15.413Z,139.67
2023-04-26T02:35:43.264Z,139.97
2023-04-26T02:38:11.870Z,139.40
2023-04-26T02:40:39.661Z,140.10
2023-04-26T02:43:10.084Z,139.47
2023-04-26T02:45:43.444Z,140.23
2023-04-26T02:48:14.639Z,139.90
2023-04-26T02:50:42.982Z,140.13
2023-04-26T02:53:12.563Z,139.80
2023-04-26T02:55:40.716Z,139.67
2023-04-26T02:58:08.537Z,139.93
2023-04-26T03:00:36.453Z,140.10
2023-04-26T03:03:04.602Z,139.17
2023-04-26T03:05:33.879Z,139.73
2023-04-26T03:08:01.795Z,139.03
2023-04-26T03:10:29.689Z,139.63
2023-04-26T03:12:57.569Z,139.67
2023-04-26T03:15:26.604Z,140.13
2023-04-26T03:17:54.473Z,139.57
2023-04-26T03:20:22.920Z,140.50
2023-04-26T03:22:52.037Z,140.27
2023-04-26T03:25:20.086Z,141.07
2023-04-26T03:27:47.917Z,140.43
2023-04-26T03:30:16.678Z,141.17
2023-04-26T03:32:45.844Z,141.50
2023-04-26T03:35:13.689Z,141.53
2023-04-26T03:37:41.644Z,140.93
2023-04-26T03:40:14.477Z,141.47
2023-04-26T03:42:42.322Z,141.83
2023-04-26T03:45:11.291Z,141.53
2023-04-26T03:47:39.145Z,141.40
2023-04-26T03:50:09.170Z,141.10
2023-04-26T03:52:36.997Z,141.27
2023-04-26T03:55:09.381Z,141.47
2023-04-26T03:57:40.131Z,141.33
2023-04-26T04:00:10.018Z,141.23
2023-04-26T04:02:43.724Z,141.03
2023-04-26T04:05:17.327Z,141.80
2023-04-26T04:07:45.278Z,141.27
2023-04-26T04:10:13.118Z,141.43
2023-04-26T04:12:43.846Z,141.77
2023-04-26T04:15:12.056Z,141.47
2023-04-26T04:17:44.755Z,141.57
2023-04-26T04:20:13.801Z,141.93
2023-04-26T04:22:41.886Z,142.50
2023-04-26T04:25:11.697Z,142.33
2023-04-26T04:27:42.796Z,141.30
2023-04-26T04:30:14.558Z,141.93
2023-04-26T04:32:44.738Z,141.60
2023-04-26T04:35:13.212Z,142.17
2023-04-26T04:37:41.476Z,141.97
2023-04-26T04:40:11.681Z,141.73
2023-04-26T04:42:41.166Z,142.37
2023-04-26T04:45:12.598Z,141.07
2023-04-26T04:47:40.888Z,141.53
2023-04-26T04:50:09.900Z,142.13
2023-04-26T04:52:38.149Z,141.37
2023-04-26T04:55:06.736Z,142.37
2023-04-26T04:57:36.598Z,141.87
2023-04-26T05:00:10.308Z,142.00
2023-04-26T05:02:45.966Z,142.13
2023-04-26T05:05:14.088Z,141.80
2023-04-26T05:07:41.965Z,142.00
2023-04-26T05:10:10.520Z,142.03
2023-04-26T05:12:38.314Z,142.17
2023-04-26T05:15:07.342Z,141.83
2023-04-26T05:17:35.378Z,142.17
2023-04-26T05:20:15.133Z,142.20
2023-04-26T05:22:43.015Z,141.70
2023-04-26T05:25:11.474Z,142.83
2023-04-26T05:27:40.109Z,142.17
2023-04-26T05:30:34.106Z,142.13
2023-04-26T05:33:26.747Z,142.17
2023-04-26T05:36:10.255Z,142.57
2023-04-26T05:38:38.074Z,142.33
2023-04-26T05:41:06.352Z,141.43
2023-04-26T05:43:34.302Z,142.20
2023-04-26T05:46:02.769Z,141.97
2023-04-26T05:48:30.966Z,142.50
2023-04-26T05:50:58.790Z,141.87
2023-04-26T05:53:27.943Z,142.33
2023-04-26T05:55:55.727Z,142.03
2023-04-26T05:58:23.854Z,142.20
2023-04-26T06:00:51.639Z,142.97
2023-04-26T06:03:19.782Z,141.53
2023-04-26T06:05:47.987Z,142.13
2023-04-26T06:08:16.439Z,142.27
2023-04-26T06:10:46.912Z,141.63
2023-04-26T06:13:14.810Z,142.83
2023-04-26T06:15:43.999Z,141.73
2023-04-26T06:18:11.914Z,141.47
2023-04-26T06:20:39.753Z,141.80
2023-04-26T06:23:08.523Z,142.53
2023-04-26T06:25:37.976Z,142.13
2023-04-26T06:28:07.212Z,142.63
2023-04-26T06:30:35.086Z,143.23
2023-04-26T06:33:03.587Z,143.03
2023-04-26T06:35:32.827Z,143.23
2023-04-26T06:38:00.822Z,143.73
2023-04-26T06:40:28.884Z,143.27
2023-04-26T06:42:57.113Z,143.57
2023-04-26T06:46:01.801Z,144.50
2023-04-26T06:48:29.683Z,144.33
2023-04-26T06:50:57.467Z,144.53
2023-04-26T06:53:25.337Z,145.03
2023-04-26T06:55:54.196Z,145.17
2023-04-26T06:58:22.175Z,145.87
2023-04-26T07:00:50.300Z,145.83
2023-04-26T07:03:19.579Z,146.63
2023-04-26T07:05:48.264Z,146.53
2023-04-26T07:08:16.031Z,147.10
2023-04-26T07:10:43.841Z,146.97
2023-04-26T07:13:11.655Z,146.93
2023-04-26T07:15:39.419Z,146.43
2023-04-26T07:18:07.265Z,145.80
2023-04-26T07:20:36.405Z,145.43
2023-04-26T07:23:04.243Z,146.03
2023-04-26T07:25:32.056Z,146.27
2023-04-26T07:27:59.820Z,146.20
2023-04-26T07:30:27.695Z,146.57
2023-04-26T07:32:55.556Z,147.90
2023-04-26T07:35:23.379Z,147.70
2023-04-26T07:37:52.480Z,147.37
2023-04-26T07:40:22.640Z,146.23
2023-04-26T07:42:50.504Z,146.17
2023-04-26T07:45:18.338Z,145.33
2023-04-26T07:47:46.425Z,144.23
2023-04-26T07:50:14.441Z,145.13
2023-04-26T07:52:43.218Z,144.47
2023-04-26T07:55:12.605Z,144.13
2023-04-26T07:57:40.504Z,144.23
2023-04-26T08:00:10.900Z,143.80
2023-04-26T08:02:45.478Z,143.60
2023-04-26T08:05:14.293Z,143.77
2023-04-26T08:07:42.744Z,143.90
2023-04-26T08:10:12.822Z,144.17
2023-04-26T08:12:41.113Z,143.90
2023-04-26T08:15:09.899Z,143.43
2023-04-26T08:17:37.792Z,143.67
2023-04-26T08:20:06.963Z,143.97
2023-04-26T08:22:34.813Z,143.30
2023-04-26T08:25:03.406Z,143.40
2023-04-26T08:27:34.317Z,144.00
2023-04-26T08:30:02.133Z,143.93
2023-04-26T08:32:30.344Z,144.07
2023-04-26T08:34:58.193Z,144.17
2023-04-26T08:37:27.004Z,144.60
2023-04-26T08:39:56.476Z,145.43
2023-04-26T08:42:28.366Z,145.70
2023-04-26T08:45:01.529Z,144.57
2023-04-26T08:47:31.857Z,144.80
2023-04-26T08:50:02.621Z,143.87
2023-04-26T08:52:34.260Z,145.00
2023-04-26T08:55:03.777Z,144.43
2023-04-26T08:57:33.377Z,144.20
2023-04-26T09:00:05.398Z,143.73
2023-04-26T09:02:33.558Z,144.33
2023-04-26T09:05:01.723Z,144.17
2023-04-26T09:07:33.017Z,144.37
2023-04-26T09:10:01.474Z,144.60
2023-04-26T09:12:29.284Z,144.87
2023-04-26T09:14:57.258Z,143.87
2023-04-26T09:17:31.626Z,144.60
2023-04-26T09:19:59.959Z,144.63
2023-04-26T09:22:35.674Z,144.67
2023-04-26T09:25:05.589Z,144.77
2023-04-26T09:27:35.284Z,144.47
2023-04-26T09:30:07.633Z,144.93
2023-04-26T09:32:47.453Z,144.97
2023-04-26T09:35:23.682Z,144.50
2023-04-26T09:38:00.263Z,144.17
2023-04-26T09:40:31.216Z,143.90
2023-04-26T09:43:00.445Z,144.23
2023-04-26T09:45:29.371Z,144.53
2023-04-26T09:48:14.372Z,144.50
2023-04-26T09:50:42.369Z,144.30
2023-04-26T09:53:10.551Z,144.47
2023-04-26T09:55:38.547Z,144.27
2023-04-26T09:58:10.583Z,144.37
2023-04-26T10:00:40.772Z,143.70
2023-04-26T10:03:10.691Z,143.90
2023-04-26T10:05:39.391Z,144.03
2023-04-26T10:08:08.586Z,143.10
2023-04-26T10:10:36.584Z,143.43
2023-04-26T10:13:06.740Z,143.60
2023-04-26T10:15:35.683Z,143.67
2023-04-26T10:18:03.509Z,143.43
2023-04-26T10:20:32.825Z,143.67
2023-04-26T10:23:02.739Z,143.50
2023-04-26T10:25:37.229Z,143.77
2023-04-26T10:28:05.753Z,143.87
2023-04-26T10:30:33.726Z,143.67
2023-04-26T10:33:17.242Z,143.37
2023-04-26T10:36:13.185Z,143.87
2023-04-26T10:38:43.034Z,144.13
2023-04-26T10:41:34.277Z,143.73
2023-04-26T10:44:38.660Z,144.70
2023-04-26T10:47:07.702Z,144.53
2023-04-26T10:49:46.827Z,144.10
2023-04-26T10:52:19.626Z,144.30
2023-04-26T10:54:52.454Z,144.60
2023-04-26T10:57:21.419Z,144.27
2023-04-26T11:00:30.745Z,144.73
2023-04-26T11:03:03.887Z,143.97
2023-04-26T11:05:54.122Z,144.33
2023-04-26T11:08:26.705Z,144.07
2023-04-26T11:11:08.829Z,143.77
2023-04-26T11:13:37.771Z,143.57
2023-04-26T11:16:07.925Z,144.07
2023-04-26T11:18:38.717Z,143.67
2023-04-26T11:21:07.880Z,143.80
2023-04-26T11:23:37.508Z,144.27
2023-04-26T11:26:08.728Z,143.40
2023-04-26T11:28:38.766Z,144.13
2023-04-26T11:31:07.857Z,144.07
2023-04-26T11:33:35.738Z,143.93
2023-04-26T11:36:04.293Z,144.23
2023-04-26T11:38:32.146Z,144.87
2023-04-26T11:41:02.602Z,144.50
2023-04-26T11:43:37.352Z,144.10
2023-04-26T11:46:06.541Z,144.57
2023-04-26T11:48:37.073Z,144.87
2023-04-26T11:51:07.039Z,144.40
2023-04-26T11:53:38.995Z,144.30
2023-04-26T11:56:16.164Z,144.00
2023-04-26T11:58:46.398Z,144.40
2023-04-26T12:01:21.777Z,143.47
2023-04-26T12:03:52.584Z,143.63
2023-04-26T12:06:21.316Z,144.27
2023-04-26T12:08:52.460Z,144.17
2023-04-26T12:11:22.033Z,144.13
2023-04-26T12:13:50.148Z,144.40
2023-04-26T12:16:26.090Z,144.33
2023-04-26T12:18:54.946Z,143.47
2023-04-26T12:21:24.231Z,144.33
2023-04-26T12:23:52.186Z,144.60
2023-04-26T12:26:21.882Z,144.90
2023-04-26T12:28:49.726Z,144.17
2023-04-26T12:31:17.560Z,143.63
2023-04-26T12:33:45.842Z,144.53
2023-04-26T12:36:14.145Z,144.00
2023-04-26T12:38:41.952Z,144.07
2023-04-26T12:41:09.771Z,143.53
2023-04-26T12:43:38.954Z,143.60
2023-04-26T12:46:07.048Z,144.53
2023-04-26T12:48:34.859Z,143.57
2023-04-26T12:51:03.130Z,143.77
2023-04-26T12:53:30.965Z,144.00
2023-04-26T12:55:59.304Z,144.50
2023-04-26T12:58:28.544Z,144.20
2023-04-26T13:00:57.870Z,143.53
2023-04-26T13:03:26.195Z,143.93
2023-04-26T13:05:54.350Z,144.03
2023-04-26T13:08:22.597Z,143.30
2023-04-26T13:10:51.132Z,143.63
2023-04-26T13:13:21.948Z,143.60
2023-04-26T13:15:51.774Z,143.63
2023-04-26T13:18:21.010Z,143.23
2023-04-26T13:20:48.911Z,143.63
2023-04-26T13:23:17.428Z,143.63
2023-04-26T13:25:45.480Z,143.60
2023-04-26T13:28:13.830Z,143.00
2023-04-26T13:30:41.784Z,143.27
2023-04-26T13:33:09.728Z,143.60
2023-04-26T13:35:38.941Z,143.77
2023-04-26T13:38:06.731Z,144.30
2023-04-26T13:40:34.495Z,144.53
2023-04-26T13:43:02.317Z,144.03
2023-04-26T13:45:30.419Z,143.67
2023-04-26T13:47:58.290Z,144.27
2023-04-26T13:50:26.242Z,144.97
2023-04-26T13:52:55.466Z,144.80
2023-04-26T13:55:23.433Z,144.67
2023-04-26T13:57:51.277Z,144.40
2023-04-26T14:00:19.769Z,144.43
2023-04-26T14:02:48.400Z,144.13
2023-04-26T14:05:16.762Z,144.30
2023-04-26T14:07:44.703Z,144.47
2023-04-26T14:10:14.168Z,144.20
2023-04-26T14:12:42.224Z,144.07
2023-04-26T14:15:10.786Z,144.37
2023-04-26T14:17:38.683Z,144.03
2023-04-26T14:20:08.253Z,144.57
2023-04-26T14:22:36.029Z,144.23
2023-04-26T14:25:04.053Z,144.70
2023-04-26T14:27:33.219Z,144.57
2023-04-26T14:30:01.048Z,144.50
2023-04-26T14:32:28.899Z,144.43
2023-04-26T14:34:56.822Z,144.37
2023-04-26T14:37:24.665Z,144.73
2023-04-26T14:39:53.412Z,144.37
2023-04-26T14:42:21.362Z,144.40
2023-04-26T14:44:50.744Z,144.63
2023-04-26T14:47:18.611Z,144.73
2023-04-26T14:49:46.615Z,143.80
2023-04-26T14:52:14.393Z,144.17
2023-04-26T14:54:42.447Z,144.00
2023-04-26T14:57:10.440Z,144.17
2023-04-26T14:59:38.379Z,144.60
2023-04-26T15:02:07.918Z,143.97
2023-04-26T15:04:37.412Z,144.33
2023-04-26T15:07:05.440Z,144.33
2023-04-26T15:09:33.812Z,144.23
2023-04-26T15:12:02.387Z,144.37
2023-04-26T15:14:30.184Z,143.73
2023-04-26T15:16:58.185Z,143.97
2023-04-26T15:19:27.400Z,144.30
2023-04-26T15:21:55.165Z,144.13
2023-04-26T15:24:22.939Z,144.93
2023-04-26T15:26:50.769Z,144.20
2023-04-26T15:29:18.528Z,144.50
2023-04-26T15:31:46.555Z,143.37
2023-04-26T15:34:14.773Z,144.07
2023-04-26T15:36:43.933Z,143.90
2023-04-26T15:39:12.058Z,144.10
2023-04-26T15:41:39.830Z,144.47
2023-04-26T15:44:07.685Z,144.10
2023-04-26T15:46:37.923Z,144.47
2023-04-26T15:49:05.898Z,144.23
2023-04-26T15:51:33.737Z,144.00
2023-04-26T15:54:02.893Z,144.17
2023-04-26T15:56:30.757Z,143.47
2023-04-26T15:58:58.536Z,144.00
2023-04-26T16:01:26.474Z,143.57
2023-04-26T16:03:54.759Z,144.13
2023-04-26T16:06:22.638Z,144.23
2023-04-26T16:08:50.473Z,143.63
2023-04-26T16:11:19.742Z,143.57
2023-04-26T16:13:51.629Z,143.40
2023-04-26T16:16:19.906Z,143.60
2023-04-26T16:18:47.735Z,143.47
2023-04-26T16:21:16.140Z,143.93
2023-04-26T16:23:44.001Z,143.30
2023-04-26T16:26:11.936Z,143.57
2023-04-26T16:28:41.106Z,143.17
2023-04-26T16:31:09.466Z,143.17
2023-04-26T16:33:37.513Z,142.77
2023-04-26T16:36:05.933Z,143.40
2023-04-26T16:38:33.862Z,142.83
2023-04-26T16:41:02.260Z,143.63
2023-04-26T16:43:31.536Z,143.53
2023-04-26T16:46:01.773Z,144.03
2023-04-26T16:48:32.660Z,143.53
2023-04-26T16:51:01.109Z,142.73
2023-04-26T16:53:29.463Z,143.30
2023-04-26T16:55:57.745Z,143.57
2023-04-26T16:58:25.755Z,143.30
2023-04-26T17:00:53.906Z,143.53
2023-04-26T17:03:24.823Z,143.40
2023-04-26T17:05:52.904Z,143.00
2023-04-26T17:08:21.868Z,143.60
2023-04-26T17:10:49.790Z,143.40
2023-04-26T17:13:18.826Z,142.87
2023-04-26T17:15:47.147Z,142.27
2023-04-26T17:18:15.003Z,142.63
2023-04-26T17:20:44.193Z,143.33
2023-04-26T17:23:12.019Z,142.97
2023-04-26T17:25:40.355Z,142.43
2023-04-26T17:28:08.204Z,143.10
2023-04-26T17:30:35.970Z,142.73
2023-04-26T17:33:05.472Z,142.87
2023-04-26T17:35:33.367Z,143.30
2023-04-26T17:38:02.880Z,143.53
2023-04-26T17:40:30.655Z,143.27
2023-04-26T17:42:58.479Z,142.07
2023-04-26T17:45:26.304Z,143.03
2023-04-26T17:47:54.229Z,142.40
2023-04-26T17:50:23.428Z,143.03
2023-04-26T17:52:51.605Z,142.37
2023-04-26T17:55:21.048Z,142.77
2023-04-26T17:57:48.873Z,142.30
2023-04-26T18:00:17.363Z,141.97
2023-04-26T18:02:45.313Z,142.70
2023-04-26T18:05:13.273Z,142.20
2023-04-26T18:07:41.205Z,142.47
2023-04-26T18:10:10.002Z,142.47
2023-04-26T18:12:39.651Z,142.43
2023-04-26T18:15:09.674Z,142.13
2023-04-26T18:17:37.540Z,142.53
2023-04-26T18:20:06.460Z,142.20
2023-04-26T18:22:34.296Z,141.40
2023-04-26T18:25:02.092Z,141.63
2023-04-26T18:27:29.887Z,141.97
2023-04-26T18:29:59.203Z,141.87
2023-04-26T18:32:27.056Z,142.17
2023-04-26T18:34:54.862Z,142.07
2023-04-26T18:37:22.810Z,142.47
2023-04-26T18:39:51.206Z,142.33
2023-04-26T18:42:18.999Z,141.73
2023-04-26T18:44:46.768Z,142.17
2023-04-26T18:47:15.907Z,142.57
2023-04-26T18:49:43.706Z,141.93
2023-04-26T18:52:11.513Z,142.20
2023-04-26T18:54:39.370Z,142.10
2023-04-26T18:57:07.152Z,141.83
2023-04-26T18:59:34.917Z,142.10
2023-04-26T19:02:04.202Z,142.67
2023-04-26T19:04:33.619Z,142.83
2023-04-26T19:07:01.679Z,143.30
2023-04-26T19:09:33.391Z,142.90
2023-04-26T19:12:08.149Z,143.67
2023-04-26T19:14:36.008Z,143.13
2023-04-26T19:17:03.983Z,143.23
2023-04-26T19:19:33.265Z,142.80
2023-04-26T19:22:01.062Z,143.37
2023-04-26T19:24:28.980Z,143.13
2023-04-26T19:26:56.797Z,143.70
2023-04-26T19:29:24.695Z,143.57
2023-04-26T19:31:52.538Z,143.20
2023-04-26T19:34:21.434Z,143.63
2023-04-26T19:36:50.554Z,143.73
2023-04-26T19:39:18.366Z,143.37
2023-04-26T19:41:46.172Z,143.43
2023-04-26T19:44:14.059Z,143.67
2023-04-26T19:46:42.506Z,143.03
2023-04-26T19:49:10.318Z,142.83
2023-04-26T19:51:38.180Z,143.67
2023-04-26T19:54:07.335Z,143.67
2023-04-26T19:56:35.136Z,143.67
2023-04-26T19:59:03.018Z,143.07
2023-04-26T20:01:30.933Z,143.23
2023-04-26T20:03:58.952Z,143.97
2023-04-26T20:06:27.432Z,143.67
2023-04-26T20:08:55.238Z,143.50
2023-04-26T20:11:24.394Z,143.87
2023-04-26T20:13:52.226Z,142.87
2023-04-26T20:16:20.065Z,143.57
2023-04-26T20:18:47.892Z,143.57
2023-04-26T20:21:15.670Z,143.20
2023-04-26T20:23:43.565Z,142.57
2023-04-26T20:26:11.788Z,143.33
2023-04-26T20:28:41.023Z,143.40
2023-04-26T20:31:09.318Z,143.10
2023-04-26T20:33:37.367Z,143.27
2023-04-26T20:36:05.628Z,143.10
2023-04-26T20:38:33.484Z,143.23
2023-04-26T20:41:01.292Z,143.33
2023-04-26T20:43:29.054Z,143.00
2023-04-26T20:45:58.259Z,143.33
2023-04-26T20:48:26.108Z,142.83
2023-04-26T20:50:55.018Z,142.90
2023-04-26T20:53:22.792Z,143.03
2023-04-26T20:55:52.746Z,142.53
2023-04-26T20:58:20.638Z,142.97
2023-04-26T21:00:50.359Z,142.57
2023-04-26T21:03:19.620Z,142.80
2023-04-26T21:05:47.575Z,142.70
2023-04-26T21:08:15.390Z,142.30
2023-04-26T21:10:43.254Z,143.07
2023-04-26T21:13:11.057Z,143.73
2023-04-26T21:15:38.894Z,143.23
2023-04-26T21:18:07.071Z,142.60
2023-04-26T21:20:36.296Z,142.80
2023-04-26T21:23:04.080Z,142.83
2023-04-26T21:25:32.573Z,142.87
2023-04-26T21:28:00.531Z,142.73
2023-04-26T21:30:28.318Z,143.23
2023-04-26T21:32:56.274Z,142.30
2023-04-26T21:35:24.240Z,141.93
2023-04-26T21:37:53.375Z,142.80
2023-04-26T21:40:21.157Z,142.27
2023-04-26T21:43:03.658Z,143.03
2023-04-26T21:45:32.487Z,142.30
2023-04-26T21:48:00.311Z,142.73
2023-04-26T21:50:28.205Z,142.70
2023-04-26T21:52:57.304Z,142.27
2023-04-26T21:55:25.354Z,142.40
2023-04-26T21:57:53.176Z,142.70
2023-04-26T22:00:21.146Z,142.67
2023-04-26T22:02:49.047Z,142.87
2023-04-26T22:05:16.882Z,142.30
2023-04-26T22:07:44.691Z,142.13
2023-04-26T22:10:13.804Z,142.63
2023-04-26T22:12:41.608Z,142.63
2023-04-26T22:15:10.100Z,142.00
2023-04-26T22:17:37.953Z,142.17
2023-04-26T22:20:06.866Z,142.13
2023-04-26T22:22:34.634Z,142.93
2023-04-26T22:25:02.414Z,142.00
2023-04-26T22:27:32.188Z,142.27
2023-04-26T22:30:06.239Z,142.07
2023-04-26T22:32:40.466Z,142.27
2023-04-26T22:35:08.866Z,142.43
2023-04-26T22:37:36.655Z,142.70
2023-04-26T22:40:05.132Z,142.03
2023-04-26T22:42:34.250Z,142.03
2023-04-26T22:45:02.364Z,141.70
2023-04-26T22:47:30.172Z,141.60
2023-04-26T22:49:57.993Z,142.30
2023-04-26T22:52:31.455Z,141.67
2023-04-26T22:55:00.757Z,142.27
2023-04-26T22:57:28.954Z,141.87
2023-04-26T22:59:58.295Z,141.90
2023-04-26T23:02:26.229Z,141.60
2023-04-26T23:04:54.226Z,141.27
2023-04-26T23:07:22.139Z,142.40
2023-04-26T23:09:49.966Z,141.60
2023-04-26T23:12:19.874Z,142.17
2023-04-26T23:14:48.566Z,141.37
2023-04-26T23:17:20.196Z,141.87
2023-04-26T23:19:47.980Z,141.63
2023-04-26T23:22:15.775Z,141.90
2023-04-26T23:24:43.602Z,141.70
2023-04-26T23:27:11.475Z,142.07
2023-04-26T23:29:39.367Z,141.73
2023-04-26T23:32:07.147Z,142.17
2023-04-26T23:34:36.299Z,141.90
2023-04-26T23:37:07.199Z,141.30
2023-04-26T23:39:36.249Z,141.37
2023-04-26T23:42:04.635Z,141.63
2023-04-26T23:44:32.437Z,141.57
2023-04-26T23:47:01.199Z,141.17
2023-04-26T23:49:29.141Z,141.57
2023-04-26T23:51:58.292Z,140.77
2023-04-26T23:54:26.131Z,141.20
2023-04-26T23:56:53.916Z,141.23
2023-04-26T23:59:21.676Z,141.90
